Time;durP1;ratioP1;P1;durP2;ratioP2;P2;SDS_P1;SDS_P2;PMS_P1;PMS_P2;Temp;Humidity;BMP_temperature;BMP_pressure;BME280_temperature;BME280_humidity;BME280_pressure;Samples;Min_cycle;Max_cycle;Signal;HPM_P1;HPM_P2
2023/05/02 00:00:28;;;;;;;9.52;4.68;;;;;;;15.87;48.32;101085.09;5057454;28;20032;-37
2023/05/02 00:02:54;;;;;;;8.52;4.93;;;;;;;15.85;48.56;101079.91;5060081;28;20063;-37
2023/05/02 00:05:19;;;;;;;10.45;4.55;;;;;;;15.89;48.57;101084.00;5061620;28;20028;-36
2023/05/02 00:07:45;;;;;;;16.38;4.85;;;;;;;15.91;48.57;101081.25;5041634;28;20591;-37
2023/05/02 00:10:10;;;;;;;6.75;4.07;;;;;;;15.95;48.36;101090.69;5055686;28;21816;-37
2023/05/02 00:12:36;;;;;;;8.05;4.53;;;;;;;15.95;48.15;101093.34;5035951;28;20029;-36
2023/05/02 00:15:01;;;;;;;8.55;4.15;;;;;;;15.98;48.15;101087.78;5040239;28;20395;-37
2023/05/02 00:17:27;;;;;;;8.80;4.50;;;;;;;15.97;48.00;101091.41;5059732;28;20150;-37
2023/05/02 00:19:52;;;;;;;11.13;4.80;;;;;;;15.87;47.68;101085.09;5057092;28;20043;-37
2023/05/02 00:22:18;;;;;;;11.38;3.85;;;;;;;15.78;47.66;101087.47;5056437;28;20036;-37
2023/05/02 00:24:43;;;;;;;7.65;3.80;;;;;;;15.73;47.40;101084.28;5034489;28;20040;-37
2023/05/02 00:27:09;;;;;;;10.02;3.92;;;;;;;15.69;46.88;101088.13;5048161;28;20028;-36
2023/05/02 00:29:35;;;;;;;7.13;3.67;;;;;;;15.60;46.99;101089.66;5054344;28;20113;-37
2023/05/02 00:32:00;;;;;;;8.05;4.30;;;;;;;15.58;46.90;101093.38;5050941;28;20021;-37
2023/05/02 00:34:30;;;;;;;8.18;4.05;;;;;;;15.54;46.63;101080.34;5061251;28;20032;-36
2023/05/02 00:36:55;;;;;;;8.40;3.85;;;;;;;15.50;46.51;101081.50;5058808;28;20024;-37
2023/05/02 00:39:21;;;;;;;11.63;3.33;;;;;;;15.51;46.46;101079.72;5057868;28;20035;-37
2023/05/02 00:41:47;;;;;;;8.23;3.90;;;;;;;15.53;46.36;101078.63;5038580;28;20440;-37
2023/05/02 00:44:12;;;;;;;7.32;4.05;;;;;;;15.53;46.26;101073.34;5054808;28;20048;-37
2023/05/02 00:46:38;;;;;;;11.57;3.90;;;;;;;15.55;46.13;101070.59;5048665;28;20032;-37
2023/05/02 00:49:03;;;;;;;8.95;3.95;;;;;;;15.58;46.06;101069.50;5043624;28;20033;-37
2023/05/02 00:51:28;;;;;;;11.35;4.03;;;;;;;15.58;46.10;101066.84;5058086;28;20060;-37
2023/05/02 00:53:56;;;;;;;8.68;2.92;;;;;;;15.58;46.32;101064.19;5050570;28;20463;-37
2023/05/02 00:56:22;;;;;;;8.75;4.03;;;;;;;15.53;46.78;101070.69;5059473;28;20040;-37
2023/05/02 00:58:48;;;;;;;8.02;4.32;;;;;;;15.51;47.06;101074.41;5053176;28;20036;-36
2023/05/02 01:01:28;;;;;;;6.75;3.92;;;;;;;15.49;47.72;101066.59;5057855;28;20107;-36
2023/05/02 01:04:03;;;;;;;9.13;5.18;;;;;;;15.47;47.62;101071.16;5049434;28;20537;-37
2023/05/02 01:06:40;;;;;;;8.30;4.40;;;;;;;15.39;48.16;101070.84;5050563;28;20107;-36
2023/05/02 01:09:32;;;;;;;9.00;4.22;;;;;;;15.33;48.07;101066.00;5056919;28;20033;-36
2023/05/02 01:12:09;;;;;;;11.80;5.22;;;;;;;15.29;48.12;101072.50;5054237;28;20063;-36
2023/05/02 01:14:41;;;;;;;8.40;4.45;;;;;;;15.30;48.09;101066.22;5055170;28;20036;-37
2023/05/02 01:17:11;;;;;;;9.00;4.68;;;;;;;15.30;48.09;101055.63;5053917;28;20035;-37
2023/05/02 01:19:58;;;;;;;11.82;4.28;;;;;;;15.31;48.33;101067.94;5056004;28;20032;-37
2023/05/02 01:22:26;;;;;;;11.70;4.38;;;;;;;15.34;48.00;101067.72;5042944;28;20119;-37
2023/05/02 01:25:19;;;;;;;8.95;4.55;;;;;;;15.33;48.28;101063.38;5036460;28;20036;-37
2023/05/02 01:27:59;;;;;;;8.05;4.00;;;;;;;15.29;48.34;101064.53;5052457;28;20036;-37
2023/05/02 01:30:28;;;;;;;11.32;4.65;;;;;;;15.29;48.09;101064.53;5045843;28;20027;-37
2023/05/02 01:32:57;;;;;;;7.25;3.60;;;;;;;15.27;48.00;101067.31;5047202;28;20616;-37
2023/05/02 01:35:25;;;;;;;10.15;4.75;;;;;;;15.20;48.27;101061.56;5035060;28;20052;-37
2023/05/02 01:37:52;;;;;;;10.20;4.65;;;;;;;15.15;48.32;101063.72;5036665;28;20480;-37
2023/05/02 01:40:21;;;;;;;9.75;4.80;;;;;;;15.09;48.28;101066.81;5046281;28;20036;-37
2023/05/02 01:42:50;;;;;;;18.63;5.65;;;;;;;15.03;48.63;101069.91;5052939;28;20149;-36
2023/05/02 01:45:17;;;;;;;12.15;5.75;;;;;;;14.98;48.57;101061.44;5044471;28;20029;-37
2023/05/02 01:47:43;;;;;;;6.82;4.50;;;;;;;14.97;48.48;101062.41;5047716;28;20025;-37
2023/05/02 01:50:15;;;;;;;7.88;4.97;;;;;;;14.92;48.69;101070.69;5050774;28;20029;-37
2023/05/02 01:52:43;;;;;;;8.10;4.90;;;;;;;14.84;48.63;101065.06;5043869;28;20968;-37
2023/05/02 01:55:12;;;;;;;9.00;4.18;;;;;;;14.77;48.59;101064.66;5050470;28;20038;-37
2023/05/02 01:57:40;;;;;;;8.10;5.03;;;;;;;14.73;48.28;101071.13;5036651;28;20039;-37
2023/05/02 02:00:08;;;;;;;9.70;4.57;;;;;;;14.74;48.28;101067.53;5051729;28;20399;-37
2023/05/02 02:02:35;;;;;;;11.60;4.72;;;;;;;14.71;48.07;101075.69;5051500;28;20146;-37
2023/05/02 02:05:05;;;;;;;8.75;4.50;;;;;;;14.66;48.35;101076.00;5047660;28;20035;-37
2023/05/02 02:07:31;;;;;;;9.65;4.30;;;;;;;14.60;48.30;101066.63;5014260;28;20095;-37
2023/05/02 02:09:57;;;;;;;7.90;4.53;;;;;;;14.61;48.07;101070.16;5055296;28;20132;-37
2023/05/02 02:12:45;;;;;;;11.30;4.50;;;;;;;14.63;48.15;101074.38;5052536;28;20028;-37
2023/05/02 02:15:26;;;;;;;11.23;4.65;;;;;;;14.69;48.03;101074.94;5048989;28;20490;-37
2023/05/02 02:17:59;;;;;;;8.82;4.40;;;;;;;14.67;47.95;101076.81;5050394;28;20313;-37
2023/05/02 02:20:27;;;;;;;8.48;4.00;;;;;;;14.66;48.06;101075.13;5050245;28;20050;-37
2023/05/02 02:22:54;;;;;;;11.68;4.72;;;;;;;14.66;47.96;101078.63;5054085;28;20031;-37
2023/05/02 02:25:19;;;;;;;10.02;4.38;;;;;;;14.57;48.02;101082.78;5052832;28;20033;-37
2023/05/02 02:27:46;;;;;;;9.02;4.68;;;;;;;14.53;47.99;101083.06;5052086;28;20025;-37
2023/05/02 02:30:12;;;;;;;8.65;4.60;;;;;;;14.48;47.94;101073.66;5032737;28;20034;-36
2023/05/02 02:32:38;;;;;;;8.35;4.82;;;;;;;14.46;48.12;101080.00;5054070;28;20024;-36
2023/05/02 02:35:04;;;;;;;9.95;4.55;;;;;;;14.41;48.14;101085.59;5056311;28;20470;-37
2023/05/02 02:37:40;;;;;;;15.00;6.90;;;;;;;14.41;48.34;101090.91;5050679;28;20033;-37
2023/05/02 02:40:28;;;;;;;12.20;5.07;;;;;;;14.37;48.93;101093.88;5054651;28;20048;-36
2023/05/02 02:43:22;;;;;;;10.18;5.35;;;;;;;14.35;48.55;101101.06;5048842;28;20055;-36
2023/05/02 02:45:56;;;;;;;9.75;5.25;;;;;;;14.30;48.14;101102.22;5054569;28;20021;-37
2023/05/02 02:48:32;;;;;;;9.95;4.93;;;;;;;14.29;48.04;101103.16;5046056;28;20029;-36
2023/05/02 02:51:00;;;;;;;9.63;5.25;;;;;;;14.27;48.03;101105.09;5056910;28;20024;-37
2023/05/02 02:53:40;;;;;;;9.63;5.10;;;;;;;14.27;48.02;101115.69;5054699;28;20044;-36
2023/05/02 02:56:14;;;;;;;9.48;4.97;;;;;;;14.27;47.79;101118.34;5047822;28;20621;-36
2023/05/02 02:58:43;;;;;;;11.07;4.90;;;;;;;14.25;47.88;101122.88;5052137;28;20052;-36
2023/05/02 03:01:16;;;;;;;12.38;5.32;;;;;;;14.27;47.55;101125.41;5046637;28;20513;-36
2023/05/02 03:03:43;;;;;;;9.85;5.32;;;;;;;14.19;47.66;101136.50;5051692;28;20043;-37
2023/05/02 03:06:08;;;;;;;9.63;5.28;;;;;;;14.13;47.24;101145.72;5060804;28;20490;-37
2023/05/02 03:08:41;;;;;;;8.15;4.70;;;;;;;14.10;47.20;101145.06;5045689;28;20040;-37
2023/05/02 03:11:08;;;;;;;9.02;4.88;;;;;;;14.05;47.04;101147.16;5063157;28;20681;-37
2023/05/02 03:13:33;;;;;;;14.10;5.50;;;;;;;14.02;47.03;101143.75;5052672;28;20029;-37
2023/05/02 03:16:44;;;;;;;9.13;5.40;;;;;;;13.94;47.04;101154.03;5036378;28;20367;-37
2023/05/02 03:19:09;;;;;;;11.73;5.35;;;;;;;13.90;46.95;101147.22;5037704;28;20032;-37
2023/05/02 03:21:35;;;;;;;10.02;5.00;;;;;;;13.84;46.89;101151.13;5053622;28;20445;-37
2023/05/02 03:24:02;;;;;;;6.15;3.45;;;;;;;13.77;47.20;101148.97;5044665;28;21250;-36
2023/05/02 03:26:28;;;;;;;8.82;5.47;;;;;;;13.75;46.86;101148.22;5053447;28;20024;-37
2023/05/02 03:28:55;;;;;;;11.52;5.80;;;;;;;13.70;47.03;101159.94;5049774;28;20028;-36
2023/05/02 03:31:21;;;;;;;10.25;5.00;;;;;;;13.50;47.49;101160.38;5054987;28;20033;-36
2023/05/02 03:33:47;;;;;;;9.80;5.13;;;;;;;13.32;47.85;101155.28;5049926;28;20031;-37
2023/05/02 03:36:13;;;;;;;7.53;5.28;;;;;;;13.23;48.07;101169.06;5060094;28;20082;-36
2023/05/02 03:38:38;;;;;;;12.10;5.18;;;;;;;13.14;48.36;101175.78;5050893;28;20052;-37
2023/05/02 03:41:04;;;;;;;14.50;5.72;;;;;;;13.10;48.32;101177.72;5056716;28;20037;-37
2023/05/02 03:43:30;;;;;;;7.78;4.88;;;;;;;13.09;48.29;101181.31;5054047;28;20043;-37
2023/05/02 03:45:56;;;;;;;14.20;7.35;;;;;;;13.15;48.33;101173.97;5060413;28;20036;-37
2023/05/02 03:48:22;;;;;;;13.40;5.70;;;;;;;13.19;48.00;101176.31;5053635;28;20029;-36
2023/05/02 03:50:48;;;;;;;17.67;7.50;;;;;;;13.24;47.94;101178.66;5054960;28;22046;-37
2023/05/02 03:53:15;;;;;;;11.82;5.55;;;;;;;13.25;47.98;101175.09;5057528;28;20047;-37
2023/05/02 03:55:41;;;;;;;12.75;5.63;;;;;;;13.25;48.15;101188.28;5056259;28;20082;-36
2023/05/02 03:58:12;;;;;;;13.38;5.50;;;;;;;13.19;48.24;101193.97;5037247;28;20130;-36
2023/05/02 04:00:37;;;;;;;8.93;5.13;;;;;;;13.14;48.64;101204.84;5053289;28;20085;-37
2023/05/02 04:03:03;;;;;;;9.23;5.65;;;;;;;13.14;48.66;101206.63;5041037;28;20483;-37
2023/05/02 04:05:28;;;;;;;9.38;5.28;;;;;;;13.14;48.25;101206.63;5057047;28;20029;-37
2023/05/02 04:07:57;;;;;;;9.30;5.10;;;;;;;13.07;48.74;101204.38;5066182;28;20024;-36
2023/05/02 04:10:22;;;;;;;11.70;5.63;;;;;;;13.04;48.96;101219.53;5056757;28;20040;-37
2023/05/02 04:12:48;;;;;;;8.90;4.93;;;;;;;13.09;48.71;101220.09;5057508;28;20090;-37
2023/05/02 04:15:13;;;;;;;7.63;5.00;;;;;;;13.06;48.55;101221.16;5063763;28;20035;-36
2023/05/02 04:17:39;;;;;;;8.38;4.00;;;;;;;13.11;48.85;101227.00;5058184;28;20061;-36
2023/05/02 04:20:05;;;;;;;8.60;4.18;;;;;;;13.18;48.68;101229.28;5046272;28;20020;-37
2023/05/02 04:22:32;;;;;;;10.13;4.78;;;;;;;13.21;48.74;101235.22;5038008;28;20032;-36
2023/05/02 04:25:00;;;;;;;9.90;4.78;;;;;;;13.18;48.99;101235.41;5049655;28;20497;-36
2023/05/02 04:27:26;;;;;;;8.23;4.50;;;;;;;13.13;49.04;101237.50;5062616;28;20128;-36
2023/05/02 04:29:52;;;;;;;9.93;4.82;;;;;;;13.12;49.41;101238.44;5040379;28;20040;-36
2023/05/02 04:32:18;;;;;;;7.60;3.88;;;;;;;13.19;49.11;101244.19;5048315;28;20040;-36
2023/05/02 04:34:43;;;;;;;8.77;4.32;;;;;;;13.20;49.23;101253.81;5032054;28;20033;-36
2023/05/02 04:37:08;;;;;;;10.77;4.05;;;;;;;13.22;49.28;101259.88;5027221;28;20028;-36
2023/05/02 04:39:34;;;;;;;14.60;6.05;;;;;;;13.26;49.19;101271.94;5024383;28;20688;-36
2023/05/02 04:42:00;;;;;;;10.50;4.45;;;;;;;13.28;49.46;101264.75;5047668;28;20123;-37
2023/05/02 04:44:25;;;;;;;13.05;4.93;;;;;;;13.33;49.27;101273.25;5052088;28;20059;-37
2023/05/02 04:46:53;;;;;;;11.88;5.25;;;;;;;13.33;49.34;101280.31;5061143;23;20024;-37
2023/05/02 04:49:19;;;;;;;6.57;4.25;;;;;;;13.25;49.73;101286.06;4986179;28;20033;-36
2023/05/02 04:51:45;;;;;;;6.97;4.13;;;;;;;13.17;49.95;101285.69;5016200;28;20040;-37
2023/05/02 04:54:14;;;;;;;11.63;4.13;;;;;;;13.14;49.99;101291.16;5013642;28;20105;-36
2023/05/02 04:56:40;;;;;;;7.82;3.70;;;;;;;13.18;49.76;101295.34;5012643;28;20033;-36
2023/05/02 04:59:05;;;;;;;7.65;4.22;;;;;;;13.16;49.90;101303.34;5023381;28;20025;-36
2023/05/02 05:01:31;;;;;;;8.50;3.95;;;;;;;13.20;49.98;101304.03;5020061;28;20036;-36
2023/05/02 05:03:57;;;;;;;6.95;3.78;;;;;;;13.23;49.96;101303.84;5001654;28;20164;-37
2023/05/02 05:06:23;;;;;;;8.30;3.40;;;;;;;13.25;50.11;101318.66;5018970;28;20037;-36
2023/05/02 05:08:48;;;;;;;11.73;4.03;;;;;;;13.20;50.30;101315.44;4999992;28;20037;-36
2023/05/02 05:11:16;;;;;;;13.07;3.88;;;;;;;13.29;50.40;101321.97;5018260;28;20428;-36
2023/05/02 05:13:42;;;;;;;7.43;3.85;;;;;;;13.30;50.42;101322.81;5008368;28;20211;-36
2023/05/02 05:16:08;;;;;;;12.95;3.90;;;;;;;13.29;50.46;101335.16;5020295;28;20435;-36
2023/05/02 05:18:39;;;;;;;8.05;4.00;;;;;;;13.37;50.43;101338.22;5023098;28;20028;-36
2023/05/02 05:21:08;;;;;;;9.17;3.80;;;;;;;13.46;50.20;101342.09;5009062;28;20116;-36
2023/05/02 05:23:35;;;;;;;9.25;4.13;;;;;;;13.56;50.17;101339.75;4999625;28;20769;-36
2023/05/02 05:26:15;;;;;;;6.97;3.67;;;;;;;13.62;50.55;101351.75;5018457;28;20040;-36
2023/05/02 05:28:41;;;;;;;6.50;3.85;;;;;;;13.66;50.22;101343.56;5011126;28;20029;-36
2023/05/02 05:31:08;;;;;;;11.07;3.92;;;;;;;13.70;50.16;101342.41;4998302;28;20030;-36
2023/05/02 05:33:34;;;;;;;5.85;3.78;;;;;;;13.75;50.05;101347.44;5015564;28;20563;-36
2023/05/02 05:36:10;;;;;;;8.32;3.95;;;;;;;13.71;50.40;101345.91;5013180;28;20049;-36
2023/05/02 05:38:36;;;;;;;6.88;3.95;;;;;;;13.72;50.16;101353.75;5008338;28;20480;-36
2023/05/02 05:41:04;;;;;;;12.38;4.72;;;;;;;13.79;50.26;101369.25;5005893;28;20049;-37
2023/05/02 05:43:30;;;;;;;7.85;4.43;;;;;;;13.79;50.50;101369.25;5012840;28;20018;-36
2023/05/02 05:45:55;;;;;;;14.05;4.82;;;;;;;13.66;51.15;101370.00;4995103;28;20041;-37
2023/05/02 05:48:22;;;;;;;9.27;4.80;;;;;;;13.52;51.43;101370.00;5014045;28;20025;-36
2023/05/02 05:50:48;;;;;;;7.05;3.85;;;;;;;13.59;51.31;101373.94;5017846;28;20033;-36
2023/05/02 05:53:13;;;;;;;10.35;4.13;;;;;;;13.67;51.22;101378.78;5021452;28;20491;-37
2023/05/02 05:55:40;;;;;;;12.70;5.18;;;;;;;13.64;51.73;101387.75;5009350;28;20115;-36
2023/05/02 05:58:06;;;;;;;11.10;4.72;;;;;;;13.67;51.52;101392.88;5000628;28;20030;-36
2023/05/02 06:00:36;;;;;;;11.63;5.10;;;;;;;13.66;52.08;101396.44;5013668;28;20037;-36
2023/05/02 06:03:02;;;;;;;9.07;4.53;;;;;;;13.62;52.14;101394.94;4996445;28;20105;-36
2023/05/02 06:05:29;;;;;;;9.43;5.13;;;;;;;13.63;52.20;101396.63;5013944;28;20038;-36
2023/05/02 06:07:55;;;;;;;23.08;11.77;;;;;;;13.64;52.36;101408.91;5017826;28;20048;-37
2023/05/02 06:10:21;;;;;;;15.50;5.80;;;;;;;13.70;52.29;101418.28;5006797;28;20036;-36
2023/05/02 06:12:46;;;;;;;18.23;6.07;;;;;;;13.67;53.04;101419.31;5001963;28;20034;-36
2023/05/02 06:15:12;;;;;;;8.90;5.75;;;;;;;13.55;53.37;101414.72;5016105;28;20029;-36
2023/05/02 06:17:37;;;;;;;12.10;5.22;;;;;;;13.50;53.75;101414.19;5003337;28;20040;-36
2023/05/02 06:20:03;;;;;;;8.10;4.63;;;;;;;13.59;53.27;101421.56;5016165;28;20038;-36
2023/05/02 06:22:28;;;;;;;13.35;6.50;;;;;;;13.59;53.89;101437.41;5014146;28;20026;-36
2023/05/02 06:24:54;;;;;;;11.80;5.47;;;;;;;13.55;54.12;101430.59;5013779;28;20495;-36
2023/05/02 06:27:20;;;;;;;11.93;5.85;;;;;;;13.56;54.10;101459.59;5018533;28;20112;-37
2023/05/02 06:29:45;;;;;;;11.90;6.07;;;;;;;13.49;54.80;101439.75;4996854;28;20057;-37
2023/05/02 06:32:10;;;;;;;10.32;6.22;;;;;;;13.48;54.93;101461.00;5018803;28;20483;-36
2023/05/02 06:34:36;;;;;;;13.60;7.03;;;;;;;13.53;54.87;101458.94;5018498;28;20040;-36
2023/05/02 06:37:01;;;;;;;10.80;6.47;;;;;;;13.67;54.48;101461.63;5019572;28;20067;-36
2023/05/02 06:39:27;;;;;;;14.38;6.55;;;;;;;13.83;54.25;101471.28;5008450;28;20040;-36
2023/05/02 06:41:57;;;;;;;15.68;7.00;;;;;;;13.83;56.40;101473.94;4985128;28;20052;-36
2023/05/02 06:44:22;;;;;;;15.05;7.22;;;;;;;13.80;55.75;101480.25;5014159;28;20598;-37
2023/05/02 06:46:48;;;;;;;16.02;7.45;;;;;;;13.83;55.62;101492.47;4997052;28;20045;-36
2023/05/02 06:49:14;;;;;;;16.20;7.90;;;;;;;13.92;55.82;101493.66;5025446;28;20116;-36
2023/05/02 06:51:40;;;;;;;12.68;6.75;;;;;;;14.00;55.58;101492.25;5006528;28;20097;-36
2023/05/02 06:54:05;;;;;;;13.05;6.68;;;;;;;14.09;55.31;101498.81;5018803;28;20431;-36
2023/05/02 06:56:31;;;;;;;14.20;7.50;;;;;;;14.13;55.67;101504.78;4998470;28;20026;-36
2023/05/02 06:58:59;;;;;;;16.95;7.75;;;;;;;14.23;55.37;101505.91;5022909;28;20087;-36
2023/05/02 07:01:24;;;;;;;15.80;7.30;;;;;;;14.21;55.82;101510.44;5000219;28;20029;-37
2023/05/02 07:03:50;;;;;;;12.70;6.68;;;;;;;14.27;55.63;101510.09;5023124;28;20037;-36
2023/05/02 07:06:15;;;;;;;13.32;7.88;;;;;;;14.34;55.97;101518.50;5026570;28;20069;-36
2023/05/02 07:08:40;;;;;;;14.75;8.48;;;;;;;14.38;55.91;101519.16;5026794;28;20029;-36
2023/05/02 07:11:06;;;;;;;14.70;7.45;;;;;;;14.46;55.66;101522.16;5009763;28;20120;-37
2023/05/02 07:13:31;;;;;;;10.57;5.82;;;;;;;14.47;56.03;101526.53;5019659;28;20369;-37
2023/05/02 07:15:59;;;;;;;12.27;6.38;;;;;;;14.41;56.41;101529.56;5016442;28;20103;-36
2023/05/02 07:18:25;;;;;;;14.23;6.97;;;;;;;14.39;56.15;101544.69;5018496;28;20508;-36
2023/05/02 07:20:50;;;;;;;14.40;6.60;;;;;;;14.22;57.00;101541.25;5025053;28;20112;-36
2023/05/02 07:23:16;;;;;;;11.45;6.30;;;;;;;14.19;57.08;101546.75;5023162;28;20383;-36
2023/05/02 07:25:41;;;;;;;9.70;5.30;;;;;;;14.19;56.77;101552.03;5023498;28;20042;-36
2023/05/02 07:28:07;;;;;;;11.40;5.80;;;;;;;14.20;56.69;101543.16;5028558;28;20060;-37
2023/05/02 07:30:32;;;;;;;9.38;5.10;;;;;;;14.34;56.60;101552.91;5017719;28;20022;-37
2023/05/02 07:32:58;;;;;;;9.35;4.95;;;;;;;14.43;56.59;101564.75;5026873;28;20762;-37
2023/05/02 07:35:23;;;;;;;15.02;6.13;;;;;;;14.53;56.47;101559.72;5026048;28;20037;-37
2023/05/02 07:37:49;;;;;;;8.38;4.22;;;;;;;14.54;56.71;101562.28;5021217;28;20037;-37
2023/05/02 07:40:14;;;;;;;8.10;4.60;;;;;;;14.70;56.02;101577.25;5020942;28;20179;-37
2023/05/02 07:42:40;;;;;;;10.60;4.60;;;;;;;14.74;55.98;101571.66;5017724;28;20057;-36
2023/05/02 07:45:07;;;;;;;10.65;4.68;;;;;;;14.85;55.62;101568.34;5020327;28;20033;-36
2023/05/02 07:47:32;;;;;;;10.35;5.25;;;;;;;14.92;55.43;101580.25;4999693;28;20040;-36
2023/05/02 07:49:58;;;;;;;11.57;4.45;;;;;;;14.92;55.48;101574.97;5019129;28;20033;-36
2023/05/02 07:52:23;;;;;;;8.07;3.95;;;;;;;14.84;55.71;101582.56;5001191;28;20067;-37
2023/05/02 07:54:50;;;;;;;9.30;4.70;;;;;;;14.84;55.84;101584.31;4985789;28;20029;-36
2023/05/02 07:57:16;;;;;;;8.82;4.07;;;;;;;14.89;55.57;101590.19;5020948;28;20033;-36
2023/05/02 07:59:41;;;;;;;8.20;4.55;;;;;;;14.94;55.36;101594.25;5019708;28;20083;-36
2023/05/02 08:02:06;;;;;;;11.35;4.50;;;;;;;14.92;55.33;101593.50;4985511;28;20037;-37
2023/05/02 08:04:35;;;;;;;8.38;5.15;;;;;;;14.88;55.71;101602.63;5017838;28;20037;-36
2023/05/02 08:07:01;;;;;;;15.10;6.50;;;;;;;14.85;55.54;101607.22;5016207;28;20033;-36
2023/05/02 08:09:26;;;;;;;9.45;4.90;;;;;;;14.81;55.95;101605.75;5011557;28;20099;-36
2023/05/02 08:11:54;;;;;;;8.85;4.32;;;;;;;14.77;56.41;101619.16;5014872;28;20032;-37
2023/05/02 08:14:19;;;;;;;11.50;6.10;;;;;;;14.67;56.77;101615.34;5019855;28;20033;-37
2023/05/02 08:16:45;;;;;;;8.77;4.78;;;;;;;14.70;56.52;101620.47;5017886;28;20045;-36
2023/05/02 08:19:10;;;;;;;11.25;5.13;;;;;;;14.82;56.16;101623.34;5017357;28;20100;-37
2023/05/02 08:21:36;;;;;;;8.82;4.38;;;;;;;14.85;56.07;101624.00;5014586;28;20073;-37
2023/05/02 08:24:01;;;;;;;7.55;4.25;;;;;;;14.86;56.02;101641.59;5017681;28;20056;-37
2023/05/02 08:26:27;;;;;;;8.48;3.40;;;;;;;14.80;56.09;101635.84;5013727;28;20062;-37
2023/05/02 08:28:53;;;;;;;8.13;4.07;;;;;;;14.82;55.94;101637.44;5001334;28;20913;-37
2023/05/02 08:31:19;;;;;;;10.63;3.88;;;;;;;14.85;55.79;101649.63;5022301;28;20064;-36
2023/05/02 08:33:45;;;;;;;14.07;4.55;;;;;;;14.61;56.58;101655.44;5021095;28;20036;-37
2023/05/02 08:36:12;;;;;;;7.95;4.50;;;;;;;14.58;56.63;101648.56;5001678;28;20029;-36
2023/05/02 08:38:38;;;;;;;5.93;3.10;;;;;;;14.52;56.70;101646.25;5012836;28;20033;-37
2023/05/02 08:41:12;;;;;;;8.10;3.28;;;;;;;14.61;56.57;101651.00;5026323;28;20040;-36
2023/05/02 08:43:38;;;;;;;8.45;3.85;;;;;;;14.62;56.18;101655.34;5028791;28;20136;-37
2023/05/02 08:46:08;;;;;;;13.18;4.63;;;;;;;14.66;56.22;101663.97;5027445;28;20068;-37
2023/05/02 08:48:38;;;;;;;4.95;2.80;;;;;;;14.70;56.19;101662.03;5009592;28;20075;-36
2023/05/02 08:51:08;;;;;;;26.00;11.88;;;;;;;14.73;55.93;101669.78;5017909;28;20358;-37
2023/05/02 08:53:35;;;;;;;11.88;5.93;;;;;;;14.79;55.86;101664.09;5018675;28;20050;-36
2023/05/02 08:56:01;;;;;;;9.88;4.80;;;;;;;14.81;55.71;101662.22;5016250;28;20029;-36
2023/05/02 08:58:29;;;;;;;9.57;4.53;;;;;;;14.88;55.84;101674.16;5015038;28;20044;-37
2023/05/02 09:00:59;;;;;;;11.98;5.53;;;;;;;14.93;55.87;101681.81;4998816;28;20083;-36
2023/05/02 09:03:33;;;;;;;10.70;4.68;;;;;;;14.99;55.88;101670.00;5017592;28;20017;-37
2023/05/02 09:06:20;;;;;;;9.57;4.93;;;;;;;15.06;55.71;101680.13;4998146;28;20037;-36
2023/05/02 09:08:48;;;;;;;9.82;4.68;;;;;;;15.06;55.67;101692.50;5020348;28;20100;-36
2023/05/02 09:11:14;;;;;;;9.68;5.15;;;;;;;14.86;56.76;101694.59;5015893;28;20044;-37
2023/05/02 09:13:47;;;;;;;12.88;5.78;;;;;;;14.68;57.42;101695.69;5018359;28;20040;-36
2023/05/02 09:16:14;;;;;;;11.68;5.13;;;;;;;14.69;57.19;101703.53;5020325;28;20072;-36
2023/05/02 09:18:46;;;;;;;9.27;4.78;;;;;;;14.69;57.28;101702.69;5014558;28;20163;-36
2023/05/02 09:21:19;;;;;;;;;;;;;;;14.60;57.89;101704.06;5016764;28;20029;-37
2023/05/02 09:23:45;;;;;;;;;;;;;;;14.68;58.06;101716.88;5014794;28;20358;-37
2023/05/02 09:26:18;;;;;;;6.88;4.30;;;;;;;14.64;57.01;101711.75;5019435;28;19944;-36
2023/05/02 09:28:52;;;;;;;8.90;3.45;;;;;;;14.63;57.06;101720.63;5009794;28;20033;-36
2023/05/02 09:31:40;;;;;;;7.45;3.47;;;;;;;14.73;56.65;101714.81;5002459;28;20030;-36
2023/05/02 09:34:14;;;;;;;4.97;2.78;;;;;;;14.83;56.26;101723.91;5009378;28;20400;-37
2023/05/02 09:36:52;;;;;;;7.15;3.47;;;;;;;14.92;55.86;101725.16;5011427;28;20028;-36
2023/05/02 09:39:22;;;;;;;5.65;2.95;;;;;;;14.98;55.38;101731.88;5017309;28;20029;-36
2023/05/02 09:41:48;;;;;;;8.30;3.30;;;;;;;15.02;55.36;101730.75;5017687;28;20029;-36
2023/05/02 09:44:19;;;;;;;5.68;2.30;;;;;;;15.08;54.85;101731.25;5017146;28;20041;-37
2023/05/02 09:46:52;;;;;;;4.47;2.28;;;;;;;15.16;54.88;101744.03;5013265;28;20049;-36
2023/05/02 09:49:36;;;;;;;5.82;2.10;;;;;;;15.20;54.64;101742.88;5015783;28;20021;-36
2023/05/02 09:52:13;;;;;;;8.70;1.90;;;;;;;15.20;53.98;101745.50;5011595;28;20049;-36
2023/05/02 09:54:38;;;;;;;4.22;1.85;;;;;;;15.20;53.81;101760.59;5022192;28;20034;-36
2023/05/02 09:57:05;;;;;;;9.80;1.70;;;;;;;15.13;53.48;101760.09;4997020;28;20032;-37
2023/05/02 09:59:31;;;;;;;8.63;3.25;;;;;;;15.16;53.46;101762.59;5013626;28;20048;-36
2023/05/02 10:02:06;;;;;;;7.63;2.20;;;;;;;15.21;53.10;101767.59;4992472;28;20143;-37
2023/05/02 10:04:35;;;;;;;12.80;2.80;;;;;;;15.13;53.14;101776.00;4992800;28;20089;-37
2023/05/02 10:07:02;;;;;;;9.57;3.25;;;;;;;15.07;52.90;101776.38;4962641;28;20076;-37
2023/05/02 10:09:31;;;;;;;9.50;2.53;;;;;;;14.98;53.10;101779.59;4987463;28;20989;-37
2023/05/02 10:12:02;;;;;;;7.38;2.47;;;;;;;14.64;53.87;101791.19;5011409;28;20635;-37
2023/05/02 10:14:28;;;;;;;9.57;2.87;;;;;;;14.54;54.33;101790.03;5014971;28;20038;-37
2023/05/02 10:17:03;;;;;;;6.97;2.72;;;;;;;14.55;53.89;101786.44;4999657;28;20472;-36
2023/05/02 10:19:36;;;;;;;11.23;4.43;;;;;;;14.55;53.97;101805.00;5016959;28;20038;-37
2023/05/02 10:22:03;;;;;;;12.63;3.35;;;;;;;14.54;53.72;101805.94;5017907;28;20032;-37
2023/05/02 10:24:31;;;;;;;13.23;3.25;;;;;;;14.52;53.69;101802.50;5009244;28;20044;-37
2023/05/02 10:26:57;;;;;;;11.63;4.18;;;;;;;14.48;53.66;101817.72;5025583;28;20056;-36
2023/05/02 10:29:23;;;;;;;12.07;2.90;;;;;;;14.41;53.52;101820.81;5018871;28;20052;-37
2023/05/02 10:31:49;;;;;;;19.63;3.95;;;;;;;14.38;53.58;101800.66;5021642;28;20592;-37
2023/05/02 10:34:17;;;;;;;12.65;3.25;;;;;;;14.43;53.36;101803.91;5020124;28;20104;-37
2023/05/02 10:36:43;;;;;;;13.57;3.53;;;;;;;14.50;53.46;101804.41;5020552;28;20025;-42
2023/05/02 10:39:08;;;;;;;16.83;4.10;;;;;;;14.57;53.17;101824.31;5021261;28;20095;-37
2023/05/02 10:41:37;;;;;;;9.27;3.55;;;;;;;14.59;53.15;101813.59;5014751;28;20033;-37
2023/05/02 10:44:06;;;;;;;11.48;2.90;;;;;;;14.39;53.49;101812.09;4995335;28;20041;-36
2023/05/02 10:46:34;;;;;;;6.65;3.83;;;;;;;14.38;53.78;101824.47;5020795;28;20128;-36
2023/05/02 10:49:03;;;;;;;9.63;3.50;;;;;;;14.36;53.79;101817.56;5035328;22;20253;-36
2023/05/02 10:51:30;;;;;;;15.00;3.97;;;;;;;14.57;53.46;101832.25;5012224;28;20064;-35
2023/05/02 10:54:14;;;;;;;17.85;6.65;;;;;;;14.60;52.80;101842.63;5020558;28;20026;-35
2023/05/02 10:56:58;;;;;;;12.70;3.55;;;;;;;14.31;53.00;101852.25;5020591;28;20036;-35
2023/05/02 10:59:30;;;;;;;10.88;3.05;;;;;;;14.27;53.33;101846.28;5005610;28;20440;-35
2023/05/02 11:01:56;;;;;;;;;;;;;;;14.34;53.24;101852.09;4996514;28;20480;-35
2023/05/02 11:04:22;;;;;;;15.40;4.68;;;;;;;14.38;53.05;101858.06;4991079;28;20015;-35
2023/05/02 11:07:01;;;;;;;14.02;3.92;;;;;;;14.27;53.06;101867.47;4984179;28;20194;-35
2023/05/02 11:09:26;;;;;;;14.13;4.18;;;;;;;14.00;53.89;101865.38;4983584;28;20112;-35
2023/05/02 11:11:53;;;;;;;10.88;3.30;;;;;;;13.92;54.08;101874.66;4990183;28;20116;-35
2023/05/02 11:14:43;;;;;;;10.70;3.22;;;;;;;13.82;54.27;101874.31;4998301;28;20690;-36
2023/05/02 11:17:09;;;;;;;9.00;2.95;;;;;;;13.85;54.13;101866.19;4982562;28;20048;-35
2023/05/02 11:19:37;;;;;;;14.00;3.90;;;;;;;14.00;53.58;101894.47;4991622;28;20258;-35
2023/05/02 11:22:15;;;;;;;8.57;3.03;;;;;;;13.96;53.52;101874.44;4997145;28;20022;-35
2023/05/02 11:24:49;;;;;;;13.40;3.92;;;;;;;14.04;53.34;101881.94;4995636;28;20036;-35
2023/05/02 11:27:29;;;;;;;10.93;2.63;;;;;;;14.16;53.19;101875.13;5001048;28;20022;-35